Ever Decent — 9V7952 — position and weather

sailwx.info

Track history (hours):
 
Tides and Currents Weather Stations Pressure Air Temp Water Temp Dewpoint Dewpoint Depression Visibility Wind Speed Wind Dir Waves Ship Positions

Ever Decent

Last reported at 2017-Mar-26 16:33 UTC. Time now 2017-Mar-30 01:04 UTC.
Position N 22°19' E 114°07'.

Length 294 m; draft 11.5 m.

Type: Cargo ship. MMSI: 564904000.

Date/timePositionNaut miles runAvg speedWind from/ knotsBaromVisibWave heightAir tempDewpointWater temp
2017-Mar-26 16:33N 22°19' E 114°07'251 7.2
2017-Mar-25 05:29N 23°57' E 118°18'1515.3
2017-Mar-25 04:32N 24°12' E 118°18'1414.4
2017-Mar-25 03:33N 24°22' E 118°08'9 6.7
2017-Mar-25 02:15N 24°31' E 118°05'0 0.0
2017-Mar-25 01:33N 24°31' E 118°05'0 0.0
2017-Mar-25 00:32N 24°31' E 118°05'0 0.0
2017-Mar-24 23:15N 24°31' E 118°05'0 0.0
2017-Mar-24 22:15N 24°31' E 118°05'0 0.0
2017-Mar-24 21:15N 24°31' E 118°05'0 0.0
2017-Mar-24 20:21N 24°31' E 118°05'0 0.0
2017-Mar-24 19:33N 24°31' E 118°05'0 0.0
2017-Mar-24 18:33N 24°31' E 118°05'0 0.0
2017-Mar-24 17:33N 24°31' E 118°05'0 0.0
2017-Mar-24 16:33N 24°31' E 118°05'0 0.0
2017-Mar-24 15:33N 24°31' E 118°05'0 0.0
2017-Mar-24 14:15N 24°31' E 118°05'0 0.0
2017-Mar-24 13:32N 24°31' E 118°05'0 0.0
2017-Mar-24 12:26N 24°31' E 118°05'0 0.0
2017-Mar-24 11:32N 24°31' E 118°05'0 0.0
2017-Mar-24 10:32N 24°31' E 118°05'0 0.0
2017-Mar-24 08:26N 24°31' E 118°05'2 1.9
2017-Mar-24 07:34N 24°29' E 118°04'9 8.7
2017-Mar-24 06:33N 24°22' E 118°09'1010.3
2017-Mar-24 05:33N 24°14' E 118°16'6 5.5
2017-Mar-24 04:31N 24°11' E 118°22'3 3.4
2017-Mar-24 03:33N 24°08' E 118°21'12213.6
2017-Mar-23 18:33N 22°36' E 119°49'1313.4
2017-Mar-23 17:33N 22°32' E 120°02'1413.9
2017-Mar-23 16:34N 22°33' E 120°17'1 1.5
2017-Mar-23 15:33N 22°33' E 120°19'0 0.0
2017-Mar-23 14:33N 22°33' E 120°19'0 0.0
2017-Mar-23 13:33N 22°33' E 120°19'0 0.0
2017-Mar-23 12:30N 22°33' E 120°19'0 0.0
2017-Mar-23 11:33N 22°33' E 120°19'0 0.0
2017-Mar-23 10:33N 22°33' E 120°19'0 0.0
2017-Mar-23 09:27N 22°33' E 120°19'0 0.0
2017-Mar-23 08:33N 22°33' E 120°19'0 0.0
2017-Mar-23 07:27N 22°33' E 120°19'0 0.0
2017-Mar-23 06:33N 22°33' E 120°19'0 0.0
2017-Mar-23 05:33N 22°33' E 120°19'0 0.0
2017-Mar-23 04:33N 22°33' E 120°19'0 0.0
2017-Mar-23 03:33N 22°33' E 120°19'0 0.3
2017-Mar-23 02:33N 22°33' E 120°19'1110.8
2017-Mar-23 01:33N 22°29' E 120°08'1917.5
2017-Mar-23 00:26N 22°14' E 119°55'  
2017-Mar-19 00:33N 01°15' E 104°05'1413.9
2017-Mar-18 23:34N 01°12' E 103°52'9 8.6
2017-Mar-18 22:34N 01°17' E 103°45'1 0.9
2017-Mar-18 21:31N 01°17' E 103°46'0 0.1
2017-Mar-18 20:33N 01°17' E 103°46'0 0.1
2017-Mar-18 19:33N 01°17' E 103°46'0 0.0
2017-Mar-18 18:33N 01°17' E 103°46'0 0.1
2017-Mar-18 17:33N 01°17' E 103°46'0 0.0
2017-Mar-18 16:33N 01°17' E 103°46'0 0.0
2017-Mar-18 15:33N 01°17' E 103°46'0 0.1
2017-Mar-18 14:33N 01°17' E 103°46'0 0.1
2017-Mar-18 13:33N 01°17' E 103°46'0 0.1
2017-Mar-18 12:33N 01°17' E 103°46'0 0.1
2017-Mar-18 11:33N 01°17' E 103°46'0 0.1
2017-Mar-18 10:33N 01°17' E 103°46'0 0.1
2017-Mar-18 09:33N 01°17' E 103°46'0 0.1
2017-Mar-18 08:33N 01°17' E 103°46'0 0.1
2017-Mar-18 07:33N 01°17' E 103°46'0 0.0
2017-Mar-18 06:33N 01°17' E 103°46'1 0.9
2017-Mar-18 05:33N 01°16' E 103°45'8 7.7
2017-Mar-18 04:33N 01°12' E 103°39'6 6.5
2017-Mar-18 03:33N 01°11' E 103°32'4915.9
2017-Mar-18 00:28N 01°36' E 102°50'2019.0
2017-Mar-17 23:23N 01°45' E 102°31'1618.8
2017-Mar-17 22:32N 01°52' E 102°17'  
Track history (hours):
 
Tides and Currents Weather Stations Pressure Air Temp Water Temp Dewpoint Dewpoint Depression Visibility Wind Speed Wind Dir Waves Ship Positions

Ever Decent

Last reported at 2017-Mar-26 16:33 UTC. Time now 2017-Mar-30 01:04 UTC.
Position N 22°19' E 114°07'.

Length 294 m; draft 11.5 m.

Type: Cargo ship. MMSI: 564904000.

Date/timePositionNaut miles runAvg speedWind from/ knotsBaromVisibWave heightAir tempDewpointWater temp
2017-Mar-26 16:33N 22°19' E 114°07'251 7.2
2017-Mar-25 05:29N 23°57' E 118°18'1515.3
2017-Mar-25 04:32N 24°12' E 118°18'1414.4
2017-Mar-25 03:33N 24°22' E 118°08'9 6.7
2017-Mar-25 02:15N 24°31' E 118°05'0 0.0
2017-Mar-25 01:33N 24°31' E 118°05'0 0.0
2017-Mar-25 00:32N 24°31' E 118°05'0 0.0
2017-Mar-24 23:15N 24°31' E 118°05'0 0.0
2017-Mar-24 22:15N 24°31' E 118°05'0 0.0
2017-Mar-24 21:15N 24°31' E 118°05'0 0.0
2017-Mar-24 20:21N 24°31' E 118°05'0 0.0
2017-Mar-24 19:33N 24°31' E 118°05'0 0.0
2017-Mar-24 18:33N 24°31' E 118°05'0 0.0
2017-Mar-24 17:33N 24°31' E 118°05'0 0.0
2017-Mar-24 16:33N 24°31' E 118°05'0 0.0
2017-Mar-24 15:33N 24°31' E 118°05'0 0.0
2017-Mar-24 14:15N 24°31' E 118°05'0 0.0
2017-Mar-24 13:32N 24°31' E 118°05'0 0.0
2017-Mar-24 12:26N 24°31' E 118°05'0 0.0
2017-Mar-24 11:32N 24°31' E 118°05'0 0.0
2017-Mar-24 10:32N 24°31' E 118°05'0 0.0
2017-Mar-24 08:26N 24°31' E 118°05'2 1.9
2017-Mar-24 07:34N 24°29' E 118°04'9 8.7
2017-Mar-24 06:33N 24°22' E 118°09'1010.3
2017-Mar-24 05:33N 24°14' E 118°16'6 5.5
2017-Mar-24 04:31N 24°11' E 118°22'3 3.4
2017-Mar-24 03:33N 24°08' E 118°21'12213.6
2017-Mar-23 18:33N 22°36' E 119°49'1313.4
2017-Mar-23 17:33N 22°32' E 120°02'1413.9
2017-Mar-23 16:34N 22°33' E 120°17'1 1.5
2017-Mar-23 15:33N 22°33' E 120°19'0 0.0
2017-Mar-23 14:33N 22°33' E 120°19'0 0.0
2017-Mar-23 13:33N 22°33' E 120°19'0 0.0
2017-Mar-23 12:30N 22°33' E 120°19'0 0.0
2017-Mar-23 11:33N 22°33' E 120°19'0 0.0
2017-Mar-23 10:33N 22°33' E 120°19'0 0.0
2017-Mar-23 09:27N 22°33' E 120°19'0 0.0
2017-Mar-23 08:33N 22°33' E 120°19'0 0.0
2017-Mar-23 07:27N 22°33' E 120°19'0 0.0
2017-Mar-23 06:33N 22°33' E 120°19'0 0.0
2017-Mar-23 05:33N 22°33' E 120°19'0 0.0
2017-Mar-23 04:33N 22°33' E 120°19'0 0.0
2017-Mar-23 03:33N 22°33' E 120°19'0 0.3
2017-Mar-23 02:33N 22°33' E 120°19'1110.8
2017-Mar-23 01:33N 22°29' E 120°08'1917.5
2017-Mar-23 00:26N 22°14' E 119°55'  
2017-Mar-19 00:33N 01°15' E 104°05'1413.9
2017-Mar-18 23:34N 01°12' E 103°52'9 8.6
2017-Mar-18 22:34N 01°17' E 103°45'1 0.9
2017-Mar-18 21:31N 01°17' E 103°46'0 0.1
2017-Mar-18 20:33N 01°17' E 103°46'0 0.1
2017-Mar-18 19:33N 01°17' E 103°46'0 0.0
2017-Mar-18 18:33N 01°17' E 103°46'0 0.1
2017-Mar-18 17:33N 01°17' E 103°46'0 0.0
2017-Mar-18 16:33N 01°17' E 103°46'0 0.0
2017-Mar-18 15:33N 01°17' E 103°46'0 0.1
2017-Mar-18 14:33N 01°17' E 103°46'0 0.1
2017-Mar-18 13:33N 01°17' E 103°46'0 0.1
2017-Mar-18 12:33N 01°17' E 103°46'0 0.1
2017-Mar-18 11:33N 01°17' E 103°46'0 0.1
2017-Mar-18 10:33N 01°17' E 103°46'0 0.1
2017-Mar-18 09:33N 01°17' E 103°46'0 0.1
2017-Mar-18 08:33N 01°17' E 103°46'0 0.1
2017-Mar-18 07:33N 01°17' E 103°46'0 0.0
2017-Mar-18 06:33N 01°17' E 103°46'1 0.9
2017-Mar-18 05:33N 01°16' E 103°45'8 7.7
2017-Mar-18 04:33N 01°12' E 103°39'6 6.5
2017-Mar-18 03:33N 01°11' E 103°32'4915.9
2017-Mar-18 00:28N 01°36' E 102°50'2019.0
2017-Mar-17 23:23N 01°45' E 102°31'1618.8
2017-Mar-17 22:32N 01°52' E 102°17'  

Dump ship's entire track history